sensor_id;sensor_type;location;lat;lon;timestamp;P1;durP1;ratioP1;P2;durP2;ratioP2
21564;SDS011;10943;48.738;9.320;2022-12-01T00:00:03;23.35;;;14.43;;
21564;SDS011;10943;48.738;9.320;2022-12-01T00:02:32;27.42;;;15.30;;
21564;SDS011;10943;48.738;9.320;2022-12-01T00:04:59;25.23;;;14.80;;
21564;SDS011;10943;48.738;9.320;2022-12-01T00:07:30;25.17;;;15.00;;
21564;SDS011;10943;48.738;9.320;2022-12-01T00:10:02;25.52;;;14.80;;
21564;SDS011;10943;48.738;9.320;2022-12-01T00:12:52;25.30;;;14.52;;
21564;SDS011;10943;48.738;9.320;2022-12-01T00:15:26;27.95;;;15.50;;
21564;SDS011;10943;48.738;9.320;2022-12-01T00:18:04;25.80;;;15.30;;
21564;SDS011;10943;48.738;9.320;2022-12-01T00:20:33;24.60;;;15.52;;
21564;SDS011;10943;48.738;9.320;2022-12-01T00:23:01;24.98;;;15.65;;
21564;SDS011;10943;48.738;9.320;2022-12-01T00:25:39;27.38;;;15.90;;
21564;SDS011;10943;48.738;9.320;2022-12-01T00:28:31;24.65;;;15.43;;
21564;SDS011;10943;48.738;9.320;2022-12-01T00:31:06;26.88;;;16.08;;
21564;SDS011;10943;48.738;9.320;2022-12-01T00:33:39;27.60;;;15.88;;
21564;SDS011;10943;48.738;9.320;2022-12-01T00:36:17;28.70;;;16.27;;
21564;SDS011;10943;48.738;9.320;2022-12-01T00:38:45;30.45;;;18.75;;
21564;SDS011;10943;48.738;9.320;2022-12-01T00:41:15;28.33;;;16.55;;
21564;SDS011;10943;48.738;9.320;2022-12-01T00:43:55;29.13;;;16.85;;
21564;SDS011;10943;48.738;9.320;2022-12-01T00:46:26;26.27;;;16.05;;
21564;SDS011;10943;48.738;9.320;2022-12-01T00:48:54;26.88;;;15.88;;
21564;SDS011;10943;48.738;9.320;2022-12-01T00:51:21;27.98;;;16.05;;
21564;SDS011;10943;48.738;9.320;2022-12-01T00:53:49;28.55;;;15.85;;
21564;SDS011;10943;48.738;9.320;2022-12-01T00:56:17;26.00;;;15.70;;
21564;SDS011;10943;48.738;9.320;2022-12-01T00:58:46;25.23;;;16.00;;
21564;SDS011;10943;48.738;9.320;2022-12-01T01:01:13;28.35;;;17.08;;
21564;SDS011;10943;48.738;9.320;2022-12-01T01:03:41;29.30;;;16.63;;
21564;SDS011;10943;48.738;9.320;2022-12-01T01:06:10;27.55;;;16.35;;
21564;SDS011;10943;48.738;9.320;2022-12-01T01:08:39;29.17;;;16.77;;
21564;SDS011;10943;48.738;9.320;2022-12-01T01:11:07;27.67;;;16.35;;
21564;SDS011;10943;48.738;9.320;2022-12-01T01:13:40;28.65;;;17.02;;
21564;SDS011;10943;48.738;9.320;2022-12-01T01:16:15;28.55;;;15.48;;
21564;SDS011;10943;48.738;9.320;2022-12-01T01:18:46;24.70;;;15.05;;
21564;SDS011;10943;48.738;9.320;2022-12-01T01:21:15;26.35;;;15.48;;
21564;SDS011;10943;48.738;9.320;2022-12-01T01:23:48;27.95;;;16.85;;
21564;SDS011;10943;48.738;9.320;2022-12-01T01:26:19;26.45;;;15.63;;
21564;SDS011;10943;48.738;9.320;2022-12-01T01:29:31;26.60;;;15.73;;
21564;SDS011;10943;48.738;9.320;2022-12-01T01:32:19;27.35;;;15.85;;
21564;SDS011;10943;48.738;9.320;2022-12-01T01:34:52;25.67;;;15.57;;
21564;SDS011;10943;48.738;9.320;2022-12-01T01:37:42;29.42;;;17.13;;
21564;SDS011;10943;48.738;9.320;2022-12-01T01:40:46;28.17;;;16.02;;
21564;SDS011;10943;48.738;9.320;2022-12-01T01:43:36;29.17;;;16.75;;
21564;SDS011;10943;48.738;9.320;2022-12-01T01:46:14;27.17;;;16.48;;
21564;SDS011;10943;48.738;9.320;2022-12-01T01:51:41;29.85;;;17.45;;
21564;SDS011;10943;48.738;9.320;2022-12-01T01:54:27;28.77;;;16.98;;
21564;SDS011;10943;48.738;9.320;2022-12-01T01:57:06;27.48;;;16.20;;
21564;SDS011;10943;48.738;9.320;2022-12-01T01:59:51;30.13;;;16.60;;
21564;SDS011;10943;48.738;9.320;2022-12-01T02:02:41;27.33;;;15.68;;
21564;SDS011;10943;48.738;9.320;2022-12-01T02:05:31;27.02;;;16.08;;
21564;SDS011;10943;48.738;9.320;2022-12-01T02:08:07;27.67;;;17.23;;
21564;SDS011;10943;48.738;9.320;2022-12-01T02:16:57;27.85;;;16.85;;
21564;SDS011;10943;48.738;9.320;2022-12-01T02:29:55;27.55;;;15.88;;
21564;SDS011;10943;48.738;9.320;2022-12-01T02:32:48;27.48;;;16.33;;
21564;SDS011;10943;48.738;9.320;2022-12-01T02:36:14;27.90;;;16.50;;
21564;SDS011;10943;48.738;9.320;2022-12-01T02:39:39;27.73;;;15.77;;
21564;SDS011;10943;48.738;9.320;2022-12-01T02:42:56;29.23;;;16.25;;
21564;SDS011;10943;48.738;9.320;2022-12-01T02:45:32;29.55;;;15.93;;
21564;SDS011;10943;48.738;9.320;2022-12-01T02:48:25;27.92;;;15.90;;
21564;SDS011;10943;48.738;9.320;2022-12-01T02:51:14;27.52;;;15.57;;
21564;SDS011;10943;48.738;9.320;2022-12-01T02:53:50;30.42;;;16.85;;
21564;SDS011;10943;48.738;9.320;2022-12-01T02:56:21;29.75;;;15.80;;
21564;SDS011;10943;48.738;9.320;2022-12-01T02:58:56;29.85;;;16.38;;
21564;SDS011;10943;48.738;9.320;2022-12-01T03:16:26;26.70;;;15.85;;
21564;SDS011;10943;48.738;9.320;2022-12-01T03:19:31;26.92;;;15.90;;
21564;SDS011;10943;48.738;9.320;2022-12-01T03:24:57;26.13;;;15.77;;
21564;SDS011;10943;48.738;9.320;2022-12-01T03:27:31;26.23;;;16.02;;
21564;SDS011;10943;48.738;9.320;2022-12-01T03:30:16;27.58;;;15.88;;
21564;SDS011;10943;48.738;9.320;2022-12-01T03:32:45;28.88;;;15.95;;
21564;SDS011;10943;48.738;9.320;2022-12-01T03:35:28;29.10;;;17.35;;
21564;SDS011;10943;48.738;9.320;2022-12-01T03:40:50;28.48;;;16.55;;
21564;SDS011;10943;48.738;9.320;2022-12-01T03:43:35;28.40;;;16.08;;
21564;SDS011;10943;48.738;9.320;2022-12-01T03:46:17;28.00;;;16.85;;
21564;SDS011;10943;48.738;9.320;2022-12-01T03:49:10;28.15;;;16.33;;
21564;SDS011;10943;48.738;9.320;2022-12-01T03:54:38;30.45;;;17.35;;
21564;SDS011;10943;48.738;9.320;2022-12-01T03:57:55;26.65;;;15.60;;
21564;SDS011;10943;48.738;9.320;2022-12-01T04:00:40;33.92;;;17.83;;
21564;SDS011;10943;48.738;9.320;2022-12-01T04:03:15;26.83;;;16.38;;
21564;SDS011;10943;48.738;9.320;2022-12-01T04:05:45;28.33;;;17.20;;
21564;SDS011;10943;48.738;9.320;2022-12-01T04:08:13;27.85;;;17.23;;
21564;SDS011;10943;48.738;9.320;2022-12-01T04:10:45;31.17;;;17.77;;
21564;SDS011;10943;48.738;9.320;2022-12-01T04:13:15;26.98;;;16.25;;
21564;SDS011;10943;48.738;9.320;2022-12-01T04:15:49;29.98;;;17.08;;
21564;SDS011;10943;48.738;9.320;2022-12-01T04:18:19;25.98;;;15.38;;
21564;SDS011;10943;48.738;9.320;2022-12-01T04:20:48;29.05;;;16.77;;
21564;SDS011;10943;48.738;9.320;2022-12-01T04:23:16;27.20;;;16.15;;
21564;SDS011;10943;48.738;9.320;2022-12-01T04:26:02;26.17;;;16.40;;
21564;SDS011;10943;48.738;9.320;2022-12-01T04:28:30;25.60;;;15.45;;
21564;SDS011;10943;48.738;9.320;2022-12-01T04:30:58;27.90;;;17.27;;
21564;SDS011;10943;48.738;9.320;2022-12-01T04:33:25;26.55;;;15.95;;
21564;SDS011;10943;48.738;9.320;2022-12-01T04:35:58;27.65;;;16.90;;
21564;SDS011;10943;48.738;9.320;2022-12-01T04:38:26;27.58;;;15.95;;
21564;SDS011;10943;48.738;9.320;2022-12-01T04:40:56;29.77;;;17.20;;
21564;SDS011;10943;48.738;9.320;2022-12-01T04:43:24;27.65;;;16.92;;
21564;SDS011;10943;48.738;9.320;2022-12-01T04:45:52;31.38;;;16.98;;
21564;SDS011;10943;48.738;9.320;2022-12-01T04:48:20;27.90;;;16.70;;
21564;SDS011;10943;48.738;9.320;2022-12-01T04:50:48;25.15;;;16.02;;
21564;SDS011;10943;48.738;9.320;2022-12-01T04:53:15;25.73;;;16.33;;
21564;SDS011;10943;48.738;9.320;2022-12-01T04:55:42;27.80;;;15.80;;
21564;SDS011;10943;48.738;9.320;2022-12-01T04:58:09;27.92;;;16.55;;
21564;SDS011;10943;48.738;9.320;2022-12-01T05:00:37;27.23;;;16.90;;
21564;SDS011;10943;48.738;9.320;2022-12-01T05:03:04;28.00;;;15.85;;
21564;SDS011;10943;48.738;9.320;2022-12-01T05:05:39;26.40;;;16.30;;
21564;SDS011;10943;48.738;9.320;2022-12-01T05:08:09;27.42;;;15.98;;
21564;SDS011;10943;48.738;9.320;2022-12-01T05:10:37;26.40;;;16.02;;
21564;SDS011;10943;48.738;9.320;2022-12-01T05:13:04;25.58;;;14.55;;
21564;SDS011;10943;48.738;9.320;2022-12-01T05:15:32;25.20;;;15.10;;
21564;SDS011;10943;48.738;9.320;2022-12-01T05:18:12;26.42;;;16.40;;
21564;SDS011;10943;48.738;9.320;2022-12-01T05:20:45;26.08;;;15.73;;
21564;SDS011;10943;48.738;9.320;2022-12-01T05:23:27;28.45;;;15.70;;
21564;SDS011;10943;48.738;9.320;2022-12-01T05:26:03;26.83;;;16.13;;
21564;SDS011;10943;48.738;9.320;2022-12-01T05:28:36;27.30;;;16.27;;
21564;SDS011;10943;48.738;9.320;2022-12-01T05:31:04;27.65;;;16.67;;
21564;SDS011;10943;48.738;9.320;2022-12-01T05:33:31;32.65;;;17.50;;
21564;SDS011;10943;48.738;9.320;2022-12-01T05:35:59;27.45;;;16.58;;
21564;SDS011;10943;48.738;9.320;2022-12-01T05:38:26;31.23;;;17.60;;
21564;SDS011;10943;48.738;9.320;2022-12-01T05:40:54;30.00;;;16.98;;
21564;SDS011;10943;48.738;9.320;2022-12-01T05:43:22;27.10;;;15.93;;
21564;SDS011;10943;48.738;9.320;2022-12-01T05:45:55;26.52;;;16.27;;
21564;SDS011;10943;48.738;9.320;2022-12-01T05:48:24;29.95;;;17.95;;
21564;SDS011;10943;48.738;9.320;2022-12-01T05:50:53;29.75;;;17.00;;
21564;SDS011;10943;48.738;9.320;2022-12-01T05:53:21;29.17;;;18.02;;
21564;SDS011;10943;48.738;9.320;2022-12-01T05:55:52;30.08;;;17.67;;
21564;SDS011;10943;48.738;9.320;2022-12-01T05:58:20;28.90;;;17.02;;
21564;SDS011;10943;48.738;9.320;2022-12-01T06:00:48;29.90;;;18.45;;
21564;SDS011;10943;48.738;9.320;2022-12-01T06:03:16;28.73;;;17.85;;
21564;SDS011;10943;48.738;9.320;2022-12-01T06:05:43;30.08;;;18.50;;
21564;SDS011;10943;48.738;9.320;2022-12-01T06:08:10;29.52;;;17.65;;
21564;SDS011;10943;48.738;9.320;2022-12-01T06:10:38;31.30;;;18.00;;
21564;SDS011;10943;48.738;9.320;2022-12-01T06:13:05;31.63;;;18.88;;
21564;SDS011;10943;48.738;9.320;2022-12-01T06:15:32;32.38;;;19.45;;
21564;SDS011;10943;48.738;9.320;2022-12-01T06:18:00;33.60;;;19.05;;
21564;SDS011;10943;48.738;9.320;2022-12-01T06:20:28;33.03;;;19.08;;
21564;SDS011;10943;48.738;9.320;2022-12-01T06:22:55;31.33;;;19.08;;
21564;SDS011;10943;48.738;9.320;2022-12-01T06:25:35;31.27;;;19.40;;
21564;SDS011;10943;48.738;9.320;2022-12-01T06:28:03;31.00;;;19.70;;
21564;SDS011;10943;48.738;9.320;2022-12-01T06:30:50;33.67;;;19.38;;
21564;SDS011;10943;48.738;9.320;2022-12-01T06:33:23;30.98;;;19.15;;
21564;SDS011;10943;48.738;9.320;2022-12-01T06:36:03;30.63;;;18.85;;
21564;SDS011;10943;48.738;9.320;2022-12-01T06:38:33;31.02;;;17.42;;
21564;SDS011;10943;48.738;9.320;2022-12-01T06:41:02;32.80;;;19.45;;
21564;SDS011;10943;48.738;9.320;2022-12-01T06:43:31;33.22;;;19.60;;
21564;SDS011;10943;48.738;9.320;2022-12-01T06:46:06;33.47;;;19.67;;
21564;SDS011;10943;48.738;9.320;2022-12-01T06:48:33;32.72;;;20.48;;
21564;SDS011;10943;48.738;9.320;2022-12-01T06:51:02;32.08;;;19.23;;
21564;SDS011;10943;48.738;9.320;2022-12-01T06:53:39;31.25;;;19.55;;
21564;SDS011;10943;48.738;9.320;2022-12-01T06:56:06;33.72;;;20.45;;
21564;SDS011;10943;48.738;9.320;2022-12-01T06:58:33;31.15;;;19.75;;
21564;SDS011;10943;48.738;9.320;2022-12-01T07:01:09;33.97;;;19.73;;
21564;SDS011;10943;48.738;9.320;2022-12-01T07:03:38;33.60;;;20.88;;
21564;SDS011;10943;48.738;9.320;2022-12-01T07:06:05;33.42;;;20.20;;
21564;SDS011;10943;48.738;9.320;2022-12-01T07:08:36;35.30;;;19.33;;
21564;SDS011;10943;48.738;9.320;2022-12-01T07:11:04;32.72;;;19.75;;
21564;SDS011;10943;48.738;9.320;2022-12-01T07:13:40;33.63;;;19.88;;
21564;SDS011;10943;48.738;9.320;2022-12-01T07:16:11;30.70;;;19.33;;
21564;SDS011;10943;48.738;9.320;2022-12-01T07:18:38;32.78;;;20.15;;
21564;SDS011;10943;48.738;9.320;2022-12-01T07:21:08;33.22;;;20.83;;
21564;SDS011;10943;48.738;9.320;2022-12-01T07:23:39;35.38;;;21.15;;
21564;SDS011;10943;48.738;9.320;2022-12-01T07:26:08;34.70;;;20.00;;
21564;SDS011;10943;48.738;9.320;2022-12-01T07:29:19;37.10;;;20.75;;
21564;SDS011;10943;48.738;9.320;2022-12-01T07:32:06;34.35;;;20.40;;
21564;SDS011;10943;48.738;9.320;2022-12-01T07:34:36;35.17;;;20.70;;
21564;SDS011;10943;48.738;9.320;2022-12-01T07:37:05;34.95;;;20.42;;
21564;SDS011;10943;48.738;9.320;2022-12-01T07:39:35;32.17;;;20.55;;
21564;SDS011;10943;48.738;9.320;2022-12-01T07:42:02;33.63;;;21.08;;
21564;SDS011;10943;48.738;9.320;2022-12-01T07:44:30;35.05;;;21.05;;
21564;SDS011;10943;48.738;9.320;2022-12-01T07:46:57;31.58;;;20.17;;
21564;SDS011;10943;48.738;9.320;2022-12-01T07:49:25;34.42;;;20.58;;
21564;SDS011;10943;48.738;9.320;2022-12-01T07:51:52;34.30;;;21.33;;
21564;SDS011;10943;48.738;9.320;2022-12-01T07:54:20;32.25;;;19.88;;
21564;SDS011;10943;48.738;9.320;2022-12-01T07:56:47;36.67;;;21.52;;
21564;SDS011;10943;48.738;9.320;2022-12-01T07:59:15;35.05;;;20.70;;
21564;SDS011;10943;48.738;9.320;2022-12-01T08:01:43;33.92;;;20.98;;
21564;SDS011;10943;48.738;9.320;2022-12-01T08:04:11;32.55;;;20.58;;
21564;SDS011;10943;48.738;9.320;2022-12-01T08:06:39;32.67;;;21.30;;
21564;SDS011;10943;48.738;9.320;2022-12-01T08:09:09;33.33;;;20.38;;
21564;SDS011;10943;48.738;9.320;2022-12-01T08:11:36;30.35;;;20.33;;
21564;SDS011;10943;48.738;9.320;2022-12-01T08:14:03;32.10;;;21.48;;
21564;SDS011;10943;48.738;9.320;2022-12-01T08:16:35;33.05;;;20.88;;
21564;SDS011;10943;48.738;9.320;2022-12-01T08:19:08;33.80;;;21.10;;
21564;SDS011;10943;48.738;9.320;2022-12-01T08:21:38;34.45;;;21.48;;
21564;SDS011;10943;48.738;9.320;2022-12-01T08:24:05;37.38;;;21.52;;
21564;SDS011;10943;48.738;9.320;2022-12-01T08:26:33;33.80;;;21.88;;
21564;SDS011;10943;48.738;9.320;2022-12-01T08:29:00;32.15;;;20.42;;
21564;SDS011;10943;48.738;9.320;2022-12-01T08:31:32;30.65;;;20.30;;
21564;SDS011;10943;48.738;9.320;2022-12-01T08:34:05;32.45;;;20.88;;
21564;SDS011;10943;48.738;9.320;2022-12-01T08:36:35;34.80;;;20.92;;
21564;SDS011;10943;48.738;9.320;2022-12-01T08:39:02;34.28;;;21.40;;
21564;SDS011;10943;48.738;9.320;2022-12-01T08:41:32;31.70;;;21.10;;
21564;SDS011;10943;48.738;9.320;2022-12-01T08:44:00;30.90;;;19.65;;
21564;SDS011;10943;48.738;9.320;2022-12-01T08:46:30;33.33;;;20.25;;
21564;SDS011;10943;48.738;9.320;2022-12-01T08:49:01;34.25;;;21.30;;
21564;SDS011;10943;48.738;9.320;2022-12-01T08:51:32;33.60;;;20.80;;
21564;SDS011;10943;48.738;9.320;2022-12-01T08:54:02;33.38;;;20.58;;
21564;SDS011;10943;48.738;9.320;2022-12-01T08:56:32;31.02;;;19.85;;
21564;SDS011;10943;48.738;9.320;2022-12-01T08:59:07;31.83;;;19.88;;
21564;SDS011;10943;48.738;9.320;2022-12-01T09:01:41;33.65;;;19.35;;
21564;SDS011;10943;48.738;9.320;2022-12-01T09:04:23;34.40;;;20.98;;
21564;SDS011;10943;48.738;9.320;2022-12-01T09:06:52;32.67;;;20.63;;
21564;SDS011;10943;48.738;9.320;2022-12-01T09:09:24;32.95;;;20.88;;
21564;SDS011;10943;48.738;9.320;2022-12-01T09:11:54;35.72;;;20.75;;
21564;SDS011;10943;48.738;9.320;2022-12-01T09:14:23;33.55;;;20.55;;
21564;SDS011;10943;48.738;9.320;2022-12-01T09:16:50;31.77;;;19.73;;
21564;SDS011;10943;48.738;9.320;2022-12-01T09:19:20;33.47;;;20.60;;
21564;SDS011;10943;48.738;9.320;2022-12-01T09:21:51;32.80;;;20.73;;
21564;SDS011;10943;48.738;9.320;2022-12-01T09:25:04;30.45;;;20.00;;
21564;SDS011;10943;48.738;9.320;2022-12-01T09:28:06;31.05;;;19.38;;
21564;SDS011;10943;48.738;9.320;2022-12-01T09:31:04;31.05;;;20.05;;
21564;SDS011;10943;48.738;9.320;2022-12-01T09:33:35;31.35;;;19.98;;
21564;SDS011;10943;48.738;9.320;2022-12-01T09:36:07;29.75;;;19.40;;
21564;SDS011;10943;48.738;9.320;2022-12-01T09:38:54;30.90;;;19.67;;
21564;SDS011;10943;48.738;9.320;2022-12-01T09:41:27;30.75;;;19.65;;
21564;SDS011;10943;48.738;9.320;2022-12-01T09:45:19;30.75;;;18.88;;
21564;SDS011;10943;48.738;9.320;2022-12-01T09:48:02;31.52;;;19.98;;
21564;SDS011;10943;48.738;9.320;2022-12-01T09:50:36;29.00;;;19.35;;
21564;SDS011;10943;48.738;9.320;2022-12-01T09:53:07;30.17;;;19.95;;
21564;SDS011;10943;48.738;9.320;2022-12-01T09:55:44;30.98;;;19.65;;
21564;SDS011;10943;48.738;9.320;2022-12-01T09:58:16;30.33;;;20.30;;
21564;SDS011;10943;48.738;9.320;2022-12-01T10:00:51;30.00;;;19.52;;
21564;SDS011;10943;48.738;9.320;2022-12-01T10:03:24;30.60;;;19.67;;
21564;SDS011;10943;48.738;9.320;2022-12-01T10:06:12;28.42;;;19.42;;
21564;SDS011;10943;48.738;9.320;2022-12-01T10:09:02;29.25;;;19.38;;
21564;SDS011;10943;48.738;9.320;2022-12-01T10:12:31;30.90;;;19.38;;
21564;SDS011;10943;48.738;9.320;2022-12-01T10:15:17;30.38;;;19.75;;
21564;SDS011;10943;48.738;9.320;2022-12-01T10:24:41;30.13;;;19.25;;
21564;SDS011;10943;48.738;9.320;2022-12-01T10:27:49;30.45;;;18.52;;
21564;SDS011;10943;48.738;9.320;2022-12-01T10:30:51;29.27;;;17.98;;
21564;SDS011;10943;48.738;9.320;2022-12-01T10:34:14;30.05;;;18.95;;
21564;SDS011;10943;48.738;9.320;2022-12-01T10:36:37;31.30;;;19.52;;
21564;SDS011;10943;48.738;9.320;2022-12-01T10:39:05;29.63;;;18.77;;
21564;SDS011;10943;48.738;9.320;2022-12-01T10:41:43;27.65;;;18.05;;
21564;SDS011;10943;48.738;9.320;2022-12-01T10:44:14;33.25;;;19.02;;
21564;SDS011;10943;48.738;9.320;2022-12-01T10:47:24;34.53;;;20.92;;
21564;SDS011;10943;48.738;9.320;2022-12-01T10:50:24;30.23;;;19.80;;
21564;SDS011;10943;48.738;9.320;2022-12-01T10:59:01;28.77;;;17.73;;
21564;SDS011;10943;48.738;9.320;2022-12-01T11:01:57;27.70;;;18.55;;
21564;SDS011;10943;48.738;9.320;2022-12-01T11:04:39;29.23;;;18.70;;
21564;SDS011;10943;48.738;9.320;2022-12-01T11:07:46;27.48;;;18.30;;
21564;SDS011;10943;48.738;9.320;2022-12-01T11:10:21;26.70;;;17.27;;
21564;SDS011;10943;48.738;9.320;2022-12-01T11:13:25;28.30;;;18.10;;
21564;SDS011;10943;48.738;9.320;2022-12-01T11:22:28;26.63;;;17.33;;
21564;SDS011;10943;48.738;9.320;2022-12-01T11:25:08;27.17;;;17.58;;
21564;SDS011;10943;48.738;9.320;2022-12-01T11:27:51;30.23;;;18.85;;
21564;SDS011;10943;48.738;9.320;2022-12-01T11:30:30;27.77;;;18.17;;
21564;SDS011;10943;48.738;9.320;2022-12-01T11:34:06;27.50;;;17.85;;
21564;SDS011;10943;48.738;9.320;2022-12-01T11:36:55;27.48;;;17.48;;
21564;SDS011;10943;48.738;9.320;2022-12-01T11:39:35;27.38;;;17.95;;
21564;SDS011;10943;48.738;9.320;2022-12-01T11:45:17;25.70;;;16.27;;
21564;SDS011;10943;48.738;9.320;2022-12-01T11:51:24;26.23;;;17.38;;
21564;SDS011;10943;48.738;9.320;2022-12-01T11:56:52;26.80;;;17.20;;
21564;SDS011;10943;48.738;9.320;2022-12-01T11:59:42;24.98;;;17.40;;
21564;SDS011;10943;48.738;9.320;2022-12-01T12:11:03;24.77;;;16.80;;
21564;SDS011;10943;48.738;9.320;2022-12-01T12:23:39;26.17;;;16.40;;
21564;SDS011;10943;48.738;9.320;2022-12-01T12:26:31;27.27;;;16.75;;
21564;SDS011;10943;48.738;9.320;2022-12-01T12:29:29;25.02;;;16.55;;
21564;SDS011;10943;48.738;9.320;2022-12-01T12:41:49;24.08;;;15.68;;
21564;SDS011;10943;48.738;9.320;2022-12-01T12:51:38;23.02;;;15.80;;
21564;SDS011;10943;48.738;9.320;2022-12-01T12:57:33;26.60;;;17.27;;
21564;SDS011;10943;48.738;9.320;2022-12-01T13:02:56;24.50;;;16.30;;
21564;SDS011;10943;48.738;9.320;2022-12-01T13:05:46;24.83;;;15.75;;
21564;SDS011;10943;48.738;9.320;2022-12-01T13:08:48;26.65;;;17.10;;
21564;SDS011;10943;48.738;9.320;2022-12-01T13:12:37;26.30;;;16.13;;
21564;SDS011;10943;48.738;9.320;2022-12-01T13:15:43;27.48;;;16.90;;
21564;SDS011;10943;48.738;9.320;2022-12-01T13:18:44;24.33;;;16.40;;
21564;SDS011;10943;48.738;9.320;2022-12-01T13:21:33;29.13;;;17.42;;
21564;SDS011;10943;48.738;9.320;2022-12-01T13:24:22;29.52;;;17.55;;
21564;SDS011;10943;48.738;9.320;2022-12-01T13:27:30;28.20;;;17.23;;
21564;SDS011;10943;48.738;9.320;2022-12-01T13:30:55;27.30;;;17.38;;
21564;SDS011;10943;48.738;9.320;2022-12-01T13:34:19;24.35;;;16.23;;
21564;SDS011;10943;48.738;9.320;2022-12-01T13:37:07;25.55;;;15.65;;
21564;SDS011;10943;48.738;9.320;2022-12-01T13:39:37;25.50;;;17.13;;
21564;SDS011;10943;48.738;9.320;2022-12-01T13:44:53;27.65;;;17.50;;
21564;SDS011;10943;48.738;9.320;2022-12-01T13:53:12;24.23;;;15.75;;
21564;SDS011;10943;48.738;9.320;2022-12-01T14:00:28;25.75;;;16.52;;
21564;SDS011;10943;48.738;9.320;2022-12-01T14:06:06;24.67;;;16.50;;
21564;SDS011;10943;48.738;9.320;2022-12-01T14:08:48;26.80;;;16.40;;
21564;SDS011;10943;48.738;9.320;2022-12-01T14:11:24;24.20;;;15.98;;
21564;SDS011;10943;48.738;9.320;2022-12-01T14:13:58;24.80;;;15.50;;
21564;SDS011;10943;48.738;9.320;2022-12-01T14:16:51;23.63;;;15.50;;
21564;SDS011;10943;48.738;9.320;2022-12-01T14:27:49;25.10;;;15.85;;
21564;SDS011;10943;48.738;9.320;2022-12-01T14:36:16;28.73;;;16.98;;
21564;SDS011;10943;48.738;9.320;2022-12-01T14:38:48;26.58;;;16.10;;
21564;SDS011;10943;48.738;9.320;2022-12-01T14:41:28;26.90;;;16.70;;
21564;SDS011;10943;48.738;9.320;2022-12-01T14:44:08;26.48;;;17.13;;
21564;SDS011;10943;48.738;9.320;2022-12-01T14:52:34;24.25;;;15.95;;
21564;SDS011;10943;48.738;9.320;2022-12-01T14:55:24;26.02;;;16.38;;
21564;SDS011;10943;48.738;9.320;2022-12-01T14:58:19;25.55;;;16.60;;
21564;SDS011;10943;48.738;9.320;2022-12-01T15:01:00;25.80;;;15.50;;
21564;SDS011;10943;48.738;9.320;2022-12-01T15:03:41;27.25;;;16.08;;
21564;SDS011;10943;48.738;9.320;2022-12-01T15:06:17;24.83;;;15.55;;
21564;SDS011;10943;48.738;9.320;2022-12-01T15:12:03;28.55;;;16.30;;
21564;SDS011;10943;48.738;9.320;2022-12-01T15:14:37;26.95;;;16.42;;
21564;SDS011;10943;48.738;9.320;2022-12-01T15:17:27;25.23;;;16.80;;
21564;SDS011;10943;48.738;9.320;2022-12-01T15:20:00;24.90;;;15.45;;
21564;SDS011;10943;48.738;9.320;2022-12-01T15:22:29;24.77;;;16.23;;
21564;SDS011;10943;48.738;9.320;2022-12-01T15:25:06;24.75;;;16.02;;
21564;SDS011;10943;48.738;9.320;2022-12-01T15:27:41;31.15;;;17.90;;
21564;SDS011;10943;48.738;9.320;2022-12-01T15:30:13;27.40;;;16.63;;
21564;SDS011;10943;48.738;9.320;2022-12-01T15:32:44;25.85;;;16.55;;
21564;SDS011;10943;48.738;9.320;2022-12-01T15:35:15;24.63;;;16.30;;
21564;SDS011;10943;48.738;9.320;2022-12-01T15:37:50;27.77;;;17.10;;
21564;SDS011;10943;48.738;9.320;2022-12-01T15:40:25;24.20;;;15.60;;
21564;SDS011;10943;48.738;9.320;2022-12-01T15:43:21;27.42;;;17.00;;
21564;SDS011;10943;48.738;9.320;2022-12-01T15:46:01;27.42;;;16.30;;
21564;SDS011;10943;48.738;9.320;2022-12-01T15:48:38;26.65;;;17.10;;
21564;SDS011;10943;48.738;9.320;2022-12-01T15:54:23;36.22;;;21.17;;
21564;SDS011;10943;48.738;9.320;2022-12-01T15:56:59;27.88;;;16.67;;
21564;SDS011;10943;48.738;9.320;2022-12-01T16:02:21;26.48;;;17.23;;
21564;SDS011;10943;48.738;9.320;2022-12-01T16:05:02;26.08;;;17.15;;
21564;SDS011;10943;48.738;9.320;2022-12-01T16:07:45;24.63;;;15.88;;
21564;SDS011;10943;48.738;9.320;2022-12-01T16:10:34;24.67;;;15.65;;
21564;SDS011;10943;48.738;9.320;2022-12-01T16:16:19;26.17;;;16.23;;
21564;SDS011;10943;48.738;9.320;2022-12-01T16:24:28;28.27;;;17.33;;
21564;SDS011;10943;48.738;9.320;2022-12-01T16:27:18;29.35;;;18.77;;
21564;SDS011;10943;48.738;9.320;2022-12-01T16:29:57;28.25;;;18.63;;
21564;SDS011;10943;48.738;9.320;2022-12-01T16:32:37;27.23;;;17.67;;
21564;SDS011;10943;48.738;9.320;2022-12-01T16:35:22;26.05;;;17.42;;
21564;SDS011;10943;48.738;9.320;2022-12-01T16:38:02;30.25;;;17.02;;
21564;SDS011;10943;48.738;9.320;2022-12-01T16:40:56;28.63;;;17.45;;
21564;SDS011;10943;48.738;9.320;2022-12-01T16:43:27;28.75;;;17.70;;
21564;SDS011;10943;48.738;9.320;2022-12-01T16:46:05;29.77;;;18.35;;
21564;SDS011;10943;48.738;9.320;2022-12-01T16:48:39;29.75;;;17.65;;
21564;SDS011;10943;48.738;9.320;2022-12-01T16:51:06;29.65;;;19.13;;
21564;SDS011;10943;48.738;9.320;2022-12-01T16:53:48;31.33;;;18.55;;
21564;SDS011;10943;48.738;9.320;2022-12-01T16:56:17;31.15;;;19.08;;
21564;SDS011;10943;48.738;9.320;2022-12-01T16:58:44;31.33;;;19.27;;
21564;SDS011;10943;48.738;9.320;2022-12-01T17:01:12;29.40;;;17.75;;
21564;SDS011;10943;48.738;9.320;2022-12-01T17:03:40;28.63;;;17.30;;
21564;SDS011;10943;48.738;9.320;2022-12-01T17:06:16;29.15;;;17.88;;
21564;SDS011;10943;48.738;9.320;2022-12-01T17:08:48;28.83;;;17.40;;
21564;SDS011;10943;48.738;9.320;2022-12-01T17:11:16;28.83;;;18.45;;
21564;SDS011;10943;48.738;9.320;2022-12-01T17:13:44;30.00;;;18.35;;
21564;SDS011;10943;48.738;9.320;2022-12-01T17:16:11;30.15;;;19.65;;
21564;SDS011;10943;48.738;9.320;2022-12-01T17:18:44;29.90;;;18.40;;
21564;SDS011;10943;48.738;9.320;2022-12-01T17:21:14;33.00;;;18.75;;
21564;SDS011;10943;48.738;9.320;2022-12-01T17:23:44;29.30;;;18.08;;
21564;SDS011;10943;48.738;9.320;2022-12-01T17:26:12;27.55;;;18.08;;
21564;SDS011;10943;48.738;9.320;2022-12-01T17:28:43;27.70;;;17.95;;
21564;SDS011;10943;48.738;9.320;2022-12-01T17:31:11;27.20;;;17.63;;
21564;SDS011;10943;48.738;9.320;2022-12-01T17:33:40;28.92;;;18.48;;
21564;SDS011;10943;48.738;9.320;2022-12-01T17:36:12;30.60;;;19.33;;
21564;SDS011;10943;48.738;9.320;2022-12-01T17:38:41;27.35;;;17.73;;
21564;SDS011;10943;48.738;9.320;2022-12-01T17:41:14;30.23;;;17.90;;
21564;SDS011;10943;48.738;9.320;2022-12-01T17:43:47;31.98;;;18.15;;
21564;SDS011;10943;48.738;9.320;2022-12-01T17:46:20;29.63;;;18.50;;
21564;SDS011;10943;48.738;9.320;2022-12-01T17:48:48;31.10;;;18.15;;
21564;SDS011;10943;48.738;9.320;2022-12-01T17:51:16;30.15;;;17.83;;
21564;SDS011;10943;48.738;9.320;2022-12-01T17:53:48;31.80;;;19.33;;
21564;SDS011;10943;48.738;9.320;2022-12-01T17:56:16;30.88;;;18.40;;
21564;SDS011;10943;48.738;9.320;2022-12-01T17:58:48;30.40;;;18.92;;
21564;SDS011;10943;48.738;9.320;2022-12-01T18:01:21;29.42;;;18.70;;
21564;SDS011;10943;48.738;9.320;2022-12-01T18:04:11;27.33;;;18.42;;
21564;SDS011;10943;48.738;9.320;2022-12-01T18:06:50;33.00;;;19.45;;